Millennium — 9HJF9 — position and weather

sailwx.info

Track history (hours):
 
Tides and Currents Weather Stations Pressure Air Temp Water Temp Dewpoint Dewpoint Depression Visibility Wind Speed Wind Dir Waves Ship Positions

Millennium

Last reported at 2019-Jul-22 13:00 UTC. Time now 2019-Jul-22 13:56 UTC.
Position N 57°18' W 134°42'.

Length 294 m; draft 8.4 m.

Type: Passenger vessel. MMSI: 249055000.

Wind from 030 at 6 knots

Barometer 1017.7 mb
Air temperature 13.0 ° C
Visibility: greater than 10.8 NM

Date/timePositionNaut miles runAvg speedWind from/ knotsBaromVisibWave heightAir tempDewpointWater temp
2019-Jul-22 13:00N 57°18' W 134°42'12511.3 030 / 61017.710.8 13.0
2019-Jul-22 02:00N 55°42' W 132°18'1615.7 360 / 141014.910.8 19.0
2019-Jul-22 01:00N 55°30' W 132°00'18 1.8 310 / 151014.810.8 19.4
2019-Jul-21 15:00N 55°18' W 131°36'12 4.0 270 / 21017.410.8 13.0
2019-Jul-21 12:00N 55°12' W 131°18'1138.6 260 / 121017.210.8 14.0
2019-Jul-21 11:42N 55°03' W 131°08'414.6
2019-Jul-21 11:27N 54°59' W 131°07'614.4
2019-Jul-21 11:00N 54°52' W 131°07'715.1
2019-Jul-21 10:30N 54°45' W 131°11'815.8
2019-Jul-21 10:01N 54°38' W 131°16'815.4
2019-Jul-21 09:30N 54°30' W 131°14'815.1
2019-Jul-21 09:01N 54°23' W 131°09'714.7
2019-Jul-21 08:30N 54°17' W 131°04'714.5
2019-Jul-21 08:00N 54°10' W 131°02'714.7
2019-Jul-21 07:30N 54°02' W 131°01'714.7
2019-Jul-21 07:00N 53°55' W 130°59'714.9
2019-Jul-21 06:30N 53°48' W 130°55'714.7
2019-Jul-21 06:00N 53°41' W 130°54'815.1
2019-Jul-21 05:30N 53°33' W 130°51'714.6
2019-Jul-21 05:00N 53°26' W 130°48'815.1
2019-Jul-21 04:31N 53°19' W 130°45'815.2
2019-Jul-21 04:00N 53°11' W 130°42'914.8
2019-Jul-21 03:25N 53°03' W 130°39'1114.9
2019-Jul-21 02:39N 52°54' W 130°28'1319.9
2019-Jul-21 02:00N 52°42' W 130°18'212.5 290 / 21019.810.8 16.0
2019-Jul-21 01:50N 52°44' W 130°16'514.8
2019-Jul-21 01:30N 52°40' W 130°12'1223.5
2019-Jul-21 01:00N 52°30' W 130°00'6 8.2 220 / 81020.810.8 16.0
2019-Jul-21 00:19N 52°25' W 129°55'814.8
2019-Jul-20 23:44N 52°19' W 129°46'415.0
2019-Jul-20 23:29N 52°16' W 129°42'714.9
2019-Jul-20 23:00N 52°10' W 129°34'5688.2
2019-Jul-20 23:00N 52°06' W 129°30'2 5.0 330 / 61021.327.0 16.0
2019-Jul-20 22:30N 52°05' W 129°27'815.2
2019-Jul-20 22:00N 51°59' W 129°18'157.0
2019-Jul-20 22:00N 52°00' W 129°18'817.1 250 / 51021.627.0 16.0
2019-Jul-20 21:30N 51°53' W 129°10'815.9
2019-Jul-20 21:00N 51°47' W 129°02'815.3
2019-Jul-20 20:31N 51°41' W 128°54'816.1
2019-Jul-20 20:01N 51°33' W 128°52'815.4
2019-Jul-20 19:30N 51°26' W 128°48'815.7
2019-Jul-20 19:00N 51°20' W 128°39'815.8
2019-Jul-20 18:30N 51°15' W 128°30'816.4
2019-Jul-20 18:00N 51°11' W 128°19'816.4
2019-Jul-20 17:30N 51°07' W 128°08'816.1
2019-Jul-20 17:00N 51°03' W 127°56'714.1
2019-Jul-20 16:30N 50°59' W 127°47'815.3
2019-Jul-20 16:00N 50°54' W 127°38'3187.4
2019-Jul-20 16:00N 50°54' W 127°42'1122.1 130 / 31022.4 2.2
2019-Jul-20 15:29N 50°50' W 127°26'816.9
2019-Jul-20 15:00N 50°47' W 127°13'816.0
2019-Jul-20 14:28N 50°43' W 127°01'1123.3
2019-Jul-20 14:00N 50°36' W 126°48'2914.6 320 / 41021.6 5.4 12.2
2019-Jul-20 12:00N 50°24' W 126°06'2116.3 300 / 91021.9 5.4 11.0
2019-Jul-20 10:43N 50°22' W 125°34'516.3
2019-Jul-20 10:27N 50°20' W 125°27'715.4
2019-Jul-20 10:00N 50°14' W 125°23'713.9
2019-Jul-20 09:30N 50°07' W 125°21'612.7
2019-Jul-20 09:00N 50°03' W 125°14'611.4
2019-Jul-20 08:30N 49°58' W 125°09'611.4
2019-Jul-20 08:00N 49°54' W 125°03'2163.7
2019-Jul-20 08:00N 49°54' W 125°06'715.3 310 / 101020.627.0 15.0
2019-Jul-20 07:30N 49°50' W 124°56'611.0
2019-Jul-20 07:00N 49°46' W 124°50'611.8
2019-Jul-20 06:30N 49°42' W 124°44'611.7
2019-Jul-20 06:00N 49°37' W 124°38'612.0
2019-Jul-20 05:30N 49°33' W 124°32'611.9
2019-Jul-20 05:00N 49°28' W 124°26'611.6
2019-Jul-20 04:30N 49°25' W 124°18'611.4
2019-Jul-20 04:00N 49°24' W 124°10'510.9
2019-Jul-20 03:30N 49°22' W 124°02'5 9.7
2019-Jul-20 03:00N 49°20' W 123°55'3196.3
2019-Jul-20 03:00N 49°18' W 123°54'4 7.9 210 / 5 5.4
2019-Jul-20 02:30N 49°19' W 123°48'5 9.7
2019-Jul-20 02:00N 49°17' W 123°41'6410.9
2019-Jul-20 02:00N 49°12' W 123°36'612.4 150 / 51020.110.8 18.5
2019-Jul-20 01:30N 49°18' W 123°33'611.8
2019-Jul-20 01:00N 49°18' W 123°24'4258.7
2019-Jul-20 01:00N 49°18' W 123°18'2 4.3 200 / 41020.710.8 18.0
2019-Jul-20 00:30N 49°19' W 123°15'510.6
2019-Jul-20 00:00N 49°18' W 123°07'1 2.4
2019-Jul-19 23:29N 49°17' W 123°07'0 0.0
2019-Jul-19 22:59N 49°17' W 123°07'0 0.0
2019-Jul-19 22:29N 49°17' W 123°07'0 0.0
2019-Jul-19 21:59N 49°17' W 123°07'0 0.0
2019-Jul-19 21:29N 49°17' W 123°07'0 0.0
2019-Jul-19 20:59N 49°17' W 123°07'0 0.0
2019-Jul-19 20:29N 49°17' W 123°07'0 0.0
2019-Jul-19 19:59N 49°17' W 123°07'0 0.0
2019-Jul-19 19:29N 49°17' W 123°07'510.7
2019-Jul-19 19:00N 49°12' W 123°06'51738.6 310 / 151020.827.0 23.0
2019-Jul-19 18:59N 49°17' W 123°07'0 0.0
2019-Jul-19 18:29N 49°17' W 123°07'0 0.0
2019-Jul-19 17:59N 49°17' W 123°07'0 0.0
2019-Jul-19 17:29N 49°17' W 123°07'0 0.0
2019-Jul-19 16:59N 49°17' W 123°07'0 0.0
2019-Jul-19 16:29N 49°17' W 123°07'0 0.0
2019-Jul-19 15:59N 49°17' W 123°07'0 0.0
2019-Jul-19 15:29N 49°17' W 123°07'0 0.0
2019-Jul-19 14:59N 49°17' W 123°07'0 0.0
2019-Jul-19 14:29N 49°17' W 123°07'0 0.0
2019-Jul-19 14:00N 49°17' W 123°07'0 0.4
2019-Jul-19 13:30N 49°17' W 123°06'2 4.0
2019-Jul-19 13:00N 49°19' W 123°08'510.7
2019-Jul-19 12:30N 49°19' W 123°17'612.0
2019-Jul-19 12:00N 49°18' W 123°26'9597.3
2019-Jul-19 12:00N 49°18' W 123°12'1428.9 290 / 51017.710.8 14.5
2019-Jul-19 11:30N 49°18' W 123°33'5 9.0
2019-Jul-19 11:00N 49°18' W 123°40'7557.8
2019-Jul-19 11:00N 49°18' W 123°30'1123.2 300 / 191017.510.8 14.2
2019-Jul-19 10:30N 49°19' W 123°47'5 9.2
2019-Jul-19 10:00N 49°20' W 123°54'5 9.3
2019-Jul-19 09:30N 49°22' W 124°01'5 9.3
2019-Jul-19 09:00N 49°23' W 124°08'4 8.9
2019-Jul-19 08:30N 49°24' W 124°14'5 9.2
2019-Jul-19 08:00N 49°26' W 124°21'5 9.5
2019-Jul-19 07:30N 49°28' W 124°28'5 9.4
2019-Jul-19 06:59N 49°32' W 124°32'5 9.5
2019-Jul-19 06:30N 49°35' W 124°37'5 9.5
2019-Jul-19 06:00N 49°38' W 124°42'4240.0
2019-Jul-19 06:00N 49°42' W 124°42'3 6.1 200 / 151017.727.0 14.0
2019-Jul-19 05:30N 49°42' W 124°47'5 9.4
2019-Jul-19 05:00N 49°46' W 124°51'510.4
2019-Jul-19 04:30N 49°50' W 124°57'611.8
2019-Jul-19 04:00N 49°54' W 125°03'611.7
2019-Jul-19 03:30N 49°58' W 125°10'611.9
2019-Jul-19 03:00N 50°03' W 125°14'612.0
2019-Jul-19 02:30N 50°07' W 125°21'815.0
2019-Jul-19 02:00N 50°15' W 125°23'9 8.6
2019-Jul-19 01:00N 50°18' W 125°36'9143.0 240 / 171018.0 5.4 13.8
2019-Jul-19 00:56N 50°23' W 125°48'1616.6
2019-Jul-19 00:00N 50°24' W 126°12'1929.0 300 / 101018.6 5.4 13.1
2019-Jul-18 23:21N 50°31' W 126°39'514.4
2019-Jul-18 23:00N 50°36' W 126°43'918.5
2019-Jul-18 22:30N 50°41' W 126°54'918.8
2019-Jul-18 22:01N 50°45' W 127°08'918.8
2019-Jul-18 21:31N 50°49' W 127°22'918.7
2019-Jul-18 21:00N 50°53' W 127°35'1019.2
2019-Jul-18 20:30N 50°58' W 127°47'918.7
2019-Jul-18 20:00N 51°03' W 127°60'918.0
2019-Jul-18 19:30N 51°08' W 128°12'917.3
2019-Jul-18 19:00N 51°13' W 128°23'5293.8
2019-Jul-18 19:00N 51°12' W 128°30'714.4 260 / 201016.227.0 16.0
2019-Jul-18 18:30N 51°19' W 128°34'917.4
2019-Jul-18 18:00N 51°25' W 128°44'816.2
2019-Jul-18 17:30N 51°31' W 128°51'815.8
2019-Jul-18 17:00N 51°39' W 128°53'917.1
2019-Jul-18 16:30N 51°46' W 129°00'917.6
2019-Jul-18 16:00N 51°53' W 129°10'917.7
2019-Jul-18 15:30N 51°60' W 129°19'917.8
2019-Jul-18 15:00N 52°06' W 129°29'918.3
2019-Jul-18 14:30N 52°13' W 129°38'917.9
2019-Jul-18 14:00N 52°20' W 129°48'1212.1
2019-Jul-18 13:00N 52°30' W 130°00'1414.0 270 / 191012.110.8 14.3
2019-Jul-18 12:00N 52°42' W 130°12'3517.5 250 / 231011.510.8 14.7
2019-Jul-18 10:00N 53°12' W 130°42'1288.5 270 / 20 5.4
2019-Jul-18 09:51N 53°24' W 130°47'917.8
2019-Jul-18 09:20N 53°33' W 130°51'617.9
2019-Jul-18 09:00N 53°39' W 130°53'917.7
2019-Jul-18 08:30N 53°47' W 130°57'917.4
2019-Jul-18 08:00N 53°56' W 131°00'917.8
2019-Jul-18 07:30N 54°04' W 131°01'918.1
2019-Jul-18 07:00N 54°14' W 131°01'713.2
2019-Jul-18 06:30N 54°20' W 130°58'917.2
2019-Jul-18 06:00N 54°25' W 131°10'1109.6
2019-Jul-18 06:00N 54°24' W 131°12'918.4 250 / 301006.027.0 14.0
2019-Jul-18 05:30N 54°33' W 131°16'2216.2
2019-Jul-18 04:10N 54°54' W 131°07'1416.4
2019-Jul-18 03:19N 55°08' W 131°09'2 7.5
2019-Jul-18 03:00N 55°06' W 131°06'21 7.0 230 / 231003.6 5.4 15.6
2019-Jul-18 00:00N 55°18' W 131°36'0 0.0 160 / 51001.0 5.4 15.0
2019-Jul-17 23:00N 55°18' W 131°36'0 0.0 180 / 10 5.4
2019-Jul-17 20:00N 55°18' W 131°36'27 4.5 150 / 10997.727.0 15.0
2019-Jul-17 14:00N 55°36' W 132°12'2110.3 260 / 7996.6 5.4 13.2
2019-Jul-17 12:00N 55°54' W 132°30'7011.7 140 / 14997.1 5.4 13.9
2019-Jul-17 06:00N 56°24' W 134°24'3712.2 080 / 131002.110.8 13.0
2019-Jul-17 03:00N 57°00' W 134°36'5418.1 130 / 211003.5 2.2 14.4
2019-Jul-17 00:00N 57°54' W 134°48'2128.5 310 / 61006.0 5.4 14.3
2019-Jul-16 23:15N 58°09' W 135°16'416.6
2019-Jul-16 23:00N 58°09' W 135°24'3 1.1
2019-Jul-16 20:00N 58°06' W 135°24'3 0.5 090 / 101008.927.0 15.0
2019-Jul-16 14:05N 58°08' W 135°28'333.9
2019-Jul-16 14:00N 58°06' W 135°24'346.6 170 / 31011.610.8 14.4
2019-Jul-16 13:56N 58°08' W 135°28'1 2.1
2019-Jul-16 13:30N 58°09' W 135°27'5 9.7
2019-Jul-16 12:58N 58°09' W 135°17'1010.0
2019-Jul-16 12:00N 58°06' W 135°00'4214.2 130 / 221012.0 5.4 14.7
2019-Jul-16 09:00N 58°48' W 135°12'12 6.0 140 / 121013.3 2.2 13.0 15.0
2019-Jul-16 07:00N 59°00' W 135°12'24 6.0 170 / 201013.327.0 16.0
2019-Jul-16 03:00N 59°24' W 135°18'0 0.0 220 / 121014.210.8 18.3
2019-Jul-16 01:00N 59°24' W 135°18'0 0.0 230 / 111014.910.8 18.0
2019-Jul-15 19:00N 59°24' W 135°18'0 0.0 220 / 151016.027.0 19.0
2019-Jul-15 15:00N 59°24' W 135°18'18 6.1 010 / 51017.310.8 15.0
2019-Jul-15 12:00N 59°06' W 135°12'5711.4 180 / 151017.3 5.4 15.0 16.6
2019-Jul-15 07:00N 58°12' W 134°36'6 1.3 110 / 131018.027.0 13.0
2019-Jul-15 02:00N 58°12' W 134°24'0 0.0 120 / 81017.7 5.4 14.0
2019-Jul-15 01:00N 58°12' W 134°24'3 1.1 140 / 61017.710.8 14.1
2019-Jul-14 22:00N 58°12' W 134°18'3 1.6 110 / 31017.2 5.4 15.0 15.0
2019-Jul-14 20:00N 58°12' W 134°24'22 3.7 130 / 51017.027.0 14.0
2019-Jul-14 14:00N 58°24' W 135°00'18 8.3 180 / 41016.5 5.4 13.8
2019-Jul-14 11:52N 58°11' W 135°23'616.9
2019-Jul-14 11:30N 58°14' W 135°34'917.7
2019-Jul-14 11:00N 58°19' W 135°48'816.8
2019-Jul-14 10:30N 58°20' W 136°04'1016.6
2019-Jul-14 09:55N 58°17' W 136°22'5313.5
2019-Jul-14 06:00N 58°30' W 138°00'6516.3 130 / 101016.027.0 15.0
2019-Jul-14 02:00N 59°12' W 139°36'3015.1 170 / 51015.810.8 14.4
2019-Jul-14 00:00N 59°42' W 139°42'62 8.8 240 / 61015.910.8 15.0
2019-Jul-13 17:00N 59°30' W 141°42'6421.3 120 / 111015.727.0 15.0
2019-Jul-13 14:00N 59°30' W 143°48'1818.3 170 / 71015.110.8 14.5
2019-Jul-13 13:00N 59°30' W 144°24'15514.1 120 / 91015.110.8 14.0
2019-Jul-13 02:00N 60°06' W 149°24'0 0.0 150 / 141014.9 5.4 16.0
2019-Jul-13 01:00N 60°06' W 149°24'0 0.0 180 / 111015.2 5.4 15.6
2019-Jul-12 14:00N 60°06' W 149°24'0 0.0 140 / 51015.2 5.4 14.013.1 9.0
2019-Jul-12 13:00N 60°06' W 149°24'   180 / 51015.6 5.4 14.1
Track history (hours):
 
Tides and Currents Weather Stations Pressure Air Temp Water Temp Dewpoint Dewpoint Depression Visibility Wind Speed Wind Dir Waves Ship Positions

Millennium

Last reported at 2019-Jul-22 13:00 UTC. Time now 2019-Jul-22 13:56 UTC.
Position N 57°18' W 134°42'.

Length 294 m; draft 8.4 m.

Type: Passenger vessel. MMSI: 249055000.

Wind from 030 at 6 knots

Barometer 1017.7 mb
Air temperature 13.0 ° C
Visibility: greater than 10.8 NM

Date/timePositionNaut miles runAvg speedWind from/ knotsBaromVisibWave heightAir tempDewpointWater temp
2019-Jul-22 13:00N 57°18' W 134°42'12511.3 030 / 61017.710.8 13.0
2019-Jul-22 02:00N 55°42' W 132°18'1615.7 360 / 141014.910.8 19.0
2019-Jul-22 01:00N 55°30' W 132°00'18 1.8 310 / 151014.810.8 19.4
2019-Jul-21 15:00N 55°18' W 131°36'12 4.0 270 / 21017.410.8 13.0
2019-Jul-21 12:00N 55°12' W 131°18'1138.6 260 / 121017.210.8 14.0
2019-Jul-21 11:42N 55°03' W 131°08'414.6
2019-Jul-21 11:27N 54°59' W 131°07'614.4
2019-Jul-21 11:00N 54°52' W 131°07'715.1
2019-Jul-21 10:30N 54°45' W 131°11'815.8
2019-Jul-21 10:01N 54°38' W 131°16'815.4
2019-Jul-21 09:30N 54°30' W 131°14'815.1
2019-Jul-21 09:01N 54°23' W 131°09'714.7
2019-Jul-21 08:30N 54°17' W 131°04'714.5
2019-Jul-21 08:00N 54°10' W 131°02'714.7
2019-Jul-21 07:30N 54°02' W 131°01'714.7
2019-Jul-21 07:00N 53°55' W 130°59'714.9
2019-Jul-21 06:30N 53°48' W 130°55'714.7
2019-Jul-21 06:00N 53°41' W 130°54'815.1
2019-Jul-21 05:30N 53°33' W 130°51'714.6
2019-Jul-21 05:00N 53°26' W 130°48'815.1
2019-Jul-21 04:31N 53°19' W 130°45'815.2
2019-Jul-21 04:00N 53°11' W 130°42'914.8
2019-Jul-21 03:25N 53°03' W 130°39'1114.9
2019-Jul-21 02:39N 52°54' W 130°28'1319.9
2019-Jul-21 02:00N 52°42' W 130°18'212.5 290 / 21019.810.8 16.0
2019-Jul-21 01:50N 52°44' W 130°16'514.8
2019-Jul-21 01:30N 52°40' W 130°12'1223.5
2019-Jul-21 01:00N 52°30' W 130°00'6 8.2 220 / 81020.810.8 16.0
2019-Jul-21 00:19N 52°25' W 129°55'814.8
2019-Jul-20 23:44N 52°19' W 129°46'415.0
2019-Jul-20 23:29N 52°16' W 129°42'714.9
2019-Jul-20 23:00N 52°10' W 129°34'5688.2
2019-Jul-20 23:00N 52°06' W 129°30'2 5.0 330 / 61021.327.0 16.0
2019-Jul-20 22:30N 52°05' W 129°27'815.2
2019-Jul-20 22:00N 51°59' W 129°18'157.0
2019-Jul-20 22:00N 52°00' W 129°18'817.1 250 / 51021.627.0 16.0
2019-Jul-20 21:30N 51°53' W 129°10'815.9
2019-Jul-20 21:00N 51°47' W 129°02'815.3
2019-Jul-20 20:31N 51°41' W 128°54'816.1
2019-Jul-20 20:01N 51°33' W 128°52'815.4
2019-Jul-20 19:30N 51°26' W 128°48'815.7
2019-Jul-20 19:00N 51°20' W 128°39'815.8
2019-Jul-20 18:30N 51°15' W 128°30'816.4
2019-Jul-20 18:00N 51°11' W 128°19'816.4
2019-Jul-20 17:30N 51°07' W 128°08'816.1
2019-Jul-20 17:00N 51°03' W 127°56'714.1
2019-Jul-20 16:30N 50°59' W 127°47'815.3
2019-Jul-20 16:00N 50°54' W 127°38'3187.4
2019-Jul-20 16:00N 50°54' W 127°42'1122.1 130 / 31022.4 2.2
2019-Jul-20 15:29N 50°50' W 127°26'816.9
2019-Jul-20 15:00N 50°47' W 127°13'816.0
2019-Jul-20 14:28N 50°43' W 127°01'1123.3
2019-Jul-20 14:00N 50°36' W 126°48'2914.6 320 / 41021.6 5.4 12.2
2019-Jul-20 12:00N 50°24' W 126°06'2116.3 300 / 91021.9 5.4 11.0
2019-Jul-20 10:43N 50°22' W 125°34'516.3
2019-Jul-20 10:27N 50°20' W 125°27'715.4
2019-Jul-20 10:00N 50°14' W 125°23'713.9
2019-Jul-20 09:30N 50°07' W 125°21'612.7
2019-Jul-20 09:00N 50°03' W 125°14'611.4
2019-Jul-20 08:30N 49°58' W 125°09'611.4
2019-Jul-20 08:00N 49°54' W 125°03'2163.7
2019-Jul-20 08:00N 49°54' W 125°06'715.3 310 / 101020.627.0 15.0
2019-Jul-20 07:30N 49°50' W 124°56'611.0
2019-Jul-20 07:00N 49°46' W 124°50'611.8
2019-Jul-20 06:30N 49°42' W 124°44'611.7
2019-Jul-20 06:00N 49°37' W 124°38'612.0
2019-Jul-20 05:30N 49°33' W 124°32'611.9
2019-Jul-20 05:00N 49°28' W 124°26'611.6
2019-Jul-20 04:30N 49°25' W 124°18'611.4
2019-Jul-20 04:00N 49°24' W 124°10'510.9
2019-Jul-20 03:30N 49°22' W 124°02'5 9.7
2019-Jul-20 03:00N 49°20' W 123°55'3196.3
2019-Jul-20 03:00N 49°18' W 123°54'4 7.9 210 / 5 5.4
2019-Jul-20 02:30N 49°19' W 123°48'5 9.7
2019-Jul-20 02:00N 49°17' W 123°41'6410.9
2019-Jul-20 02:00N 49°12' W 123°36'612.4 150 / 51020.110.8 18.5
2019-Jul-20 01:30N 49°18' W 123°33'611.8
2019-Jul-20 01:00N 49°18' W 123°24'4258.7
2019-Jul-20 01:00N 49°18' W 123°18'2 4.3 200 / 41020.710.8 18.0
2019-Jul-20 00:30N 49°19' W 123°15'510.6
2019-Jul-20 00:00N 49°18' W 123°07'1 2.4
2019-Jul-19 23:29N 49°17' W 123°07'0 0.0
2019-Jul-19 22:59N 49°17' W 123°07'0 0.0
2019-Jul-19 22:29N 49°17' W 123°07'0 0.0
2019-Jul-19 21:59N 49°17' W 123°07'0 0.0
2019-Jul-19 21:29N 49°17' W 123°07'0 0.0
2019-Jul-19 20:59N 49°17' W 123°07'0 0.0
2019-Jul-19 20:29N 49°17' W 123°07'0 0.0
2019-Jul-19 19:59N 49°17' W 123°07'0 0.0
2019-Jul-19 19:29N 49°17' W 123°07'510.7
2019-Jul-19 19:00N 49°12' W 123°06'51738.6 310 / 151020.827.0 23.0
2019-Jul-19 18:59N 49°17' W 123°07'0 0.0
2019-Jul-19 18:29N 49°17' W 123°07'0 0.0
2019-Jul-19 17:59N 49°17' W 123°07'0 0.0
2019-Jul-19 17:29N 49°17' W 123°07'0 0.0
2019-Jul-19 16:59N 49°17' W 123°07'0 0.0
2019-Jul-19 16:29N 49°17' W 123°07'0 0.0
2019-Jul-19 15:59N 49°17' W 123°07'0 0.0
2019-Jul-19 15:29N 49°17' W 123°07'0 0.0
2019-Jul-19 14:59N 49°17' W 123°07'0 0.0
2019-Jul-19 14:29N 49°17' W 123°07'0 0.0
2019-Jul-19 14:00N 49°17' W 123°07'0 0.4
2019-Jul-19 13:30N 49°17' W 123°06'2 4.0
2019-Jul-19 13:00N 49°19' W 123°08'510.7
2019-Jul-19 12:30N 49°19' W 123°17'612.0
2019-Jul-19 12:00N 49°18' W 123°26'9597.3
2019-Jul-19 12:00N 49°18' W 123°12'1428.9 290 / 51017.710.8 14.5
2019-Jul-19 11:30N 49°18' W 123°33'5 9.0
2019-Jul-19 11:00N 49°18' W 123°40'7557.8
2019-Jul-19 11:00N 49°18' W 123°30'1123.2 300 / 191017.510.8 14.2
2019-Jul-19 10:30N 49°19' W 123°47'5 9.2
2019-Jul-19 10:00N 49°20' W 123°54'5 9.3
2019-Jul-19 09:30N 49°22' W 124°01'5 9.3
2019-Jul-19 09:00N 49°23' W 124°08'4 8.9
2019-Jul-19 08:30N 49°24' W 124°14'5 9.2
2019-Jul-19 08:00N 49°26' W 124°21'5 9.5
2019-Jul-19 07:30N 49°28' W 124°28'5 9.4
2019-Jul-19 06:59N 49°32' W 124°32'5 9.5
2019-Jul-19 06:30N 49°35' W 124°37'5 9.5
2019-Jul-19 06:00N 49°38' W 124°42'4240.0
2019-Jul-19 06:00N 49°42' W 124°42'3 6.1 200 / 151017.727.0 14.0
2019-Jul-19 05:30N 49°42' W 124°47'5 9.4
2019-Jul-19 05:00N 49°46' W 124°51'510.4
2019-Jul-19 04:30N 49°50' W 124°57'611.8
2019-Jul-19 04:00N 49°54' W 125°03'611.7
2019-Jul-19 03:30N 49°58' W 125°10'611.9
2019-Jul-19 03:00N 50°03' W 125°14'612.0
2019-Jul-19 02:30N 50°07' W 125°21'815.0
2019-Jul-19 02:00N 50°15' W 125°23'9 8.6
2019-Jul-19 01:00N 50°18' W 125°36'9143.0 240 / 171018.0 5.4 13.8
2019-Jul-19 00:56N 50°23' W 125°48'1616.6
2019-Jul-19 00:00N 50°24' W 126°12'1929.0 300 / 101018.6 5.4 13.1
2019-Jul-18 23:21N 50°31' W 126°39'514.4
2019-Jul-18 23:00N 50°36' W 126°43'918.5
2019-Jul-18 22:30N 50°41' W 126°54'918.8
2019-Jul-18 22:01N 50°45' W 127°08'918.8
2019-Jul-18 21:31N 50°49' W 127°22'918.7
2019-Jul-18 21:00N 50°53' W 127°35'1019.2
2019-Jul-18 20:30N 50°58' W 127°47'918.7
2019-Jul-18 20:00N 51°03' W 127°60'918.0
2019-Jul-18 19:30N 51°08' W 128°12'917.3
2019-Jul-18 19:00N 51°13' W 128°23'5293.8
2019-Jul-18 19:00N 51°12' W 128°30'714.4 260 / 201016.227.0 16.0
2019-Jul-18 18:30N 51°19' W 128°34'917.4
2019-Jul-18 18:00N 51°25' W 128°44'816.2
2019-Jul-18 17:30N 51°31' W 128°51'815.8
2019-Jul-18 17:00N 51°39' W 128°53'917.1
2019-Jul-18 16:30N 51°46' W 129°00'917.6
2019-Jul-18 16:00N 51°53' W 129°10'917.7
2019-Jul-18 15:30N 51°60' W 129°19'917.8
2019-Jul-18 15:00N 52°06' W 129°29'918.3
2019-Jul-18 14:30N 52°13' W 129°38'917.9
2019-Jul-18 14:00N 52°20' W 129°48'1212.1
2019-Jul-18 13:00N 52°30' W 130°00'1414.0 270 / 191012.110.8 14.3
2019-Jul-18 12:00N 52°42' W 130°12'3517.5 250 / 231011.510.8 14.7
2019-Jul-18 10:00N 53°12' W 130°42'1288.5 270 / 20 5.4
2019-Jul-18 09:51N 53°24' W 130°47'917.8
2019-Jul-18 09:20N 53°33' W 130°51'617.9
2019-Jul-18 09:00N 53°39' W 130°53'917.7
2019-Jul-18 08:30N 53°47' W 130°57'917.4
2019-Jul-18 08:00N 53°56' W 131°00'917.8
2019-Jul-18 07:30N 54°04' W 131°01'918.1
2019-Jul-18 07:00N 54°14' W 131°01'713.2
2019-Jul-18 06:30N 54°20' W 130°58'917.2
2019-Jul-18 06:00N 54°25' W 131°10'1109.6
2019-Jul-18 06:00N 54°24' W 131°12'918.4 250 / 301006.027.0 14.0
2019-Jul-18 05:30N 54°33' W 131°16'2216.2
2019-Jul-18 04:10N 54°54' W 131°07'1416.4
2019-Jul-18 03:19N 55°08' W 131°09'2 7.5
2019-Jul-18 03:00N 55°06' W 131°06'21 7.0 230 / 231003.6 5.4 15.6
2019-Jul-18 00:00N 55°18' W 131°36'0 0.0 160 / 51001.0 5.4 15.0
2019-Jul-17 23:00N 55°18' W 131°36'0 0.0 180 / 10 5.4
2019-Jul-17 20:00N 55°18' W 131°36'27 4.5 150 / 10997.727.0 15.0
2019-Jul-17 14:00N 55°36' W 132°12'2110.3 260 / 7996.6 5.4 13.2
2019-Jul-17 12:00N 55°54' W 132°30'7011.7 140 / 14997.1 5.4 13.9
2019-Jul-17 06:00N 56°24' W 134°24'3712.2 080 / 131002.110.8 13.0
2019-Jul-17 03:00N 57°00' W 134°36'5418.1 130 / 211003.5 2.2 14.4
2019-Jul-17 00:00N 57°54' W 134°48'2128.5 310 / 61006.0 5.4 14.3
2019-Jul-16 23:15N 58°09' W 135°16'416.6
2019-Jul-16 23:00N 58°09' W 135°24'3 1.1
2019-Jul-16 20:00N 58°06' W 135°24'3 0.5 090 / 101008.927.0 15.0
2019-Jul-16 14:05N 58°08' W 135°28'333.9
2019-Jul-16 14:00N 58°06' W 135°24'346.6 170 / 31011.610.8 14.4
2019-Jul-16 13:56N 58°08' W 135°28'1 2.1
2019-Jul-16 13:30N 58°09' W 135°27'5 9.7
2019-Jul-16 12:58N 58°09' W 135°17'1010.0
2019-Jul-16 12:00N 58°06' W 135°00'4214.2 130 / 221012.0 5.4 14.7
2019-Jul-16 09:00N 58°48' W 135°12'12 6.0 140 / 121013.3 2.2 13.0 15.0
2019-Jul-16 07:00N 59°00' W 135°12'24 6.0 170 / 201013.327.0 16.0
2019-Jul-16 03:00N 59°24' W 135°18'0 0.0 220 / 121014.210.8 18.3
2019-Jul-16 01:00N 59°24' W 135°18'0 0.0 230 / 111014.910.8 18.0
2019-Jul-15 19:00N 59°24' W 135°18'0 0.0 220 / 151016.027.0 19.0
2019-Jul-15 15:00N 59°24' W 135°18'18 6.1 010 / 51017.310.8 15.0
2019-Jul-15 12:00N 59°06' W 135°12'5711.4 180 / 151017.3 5.4 15.0 16.6
2019-Jul-15 07:00N 58°12' W 134°36'6 1.3 110 / 131018.027.0 13.0
2019-Jul-15 02:00N 58°12' W 134°24'0 0.0 120 / 81017.7 5.4 14.0
2019-Jul-15 01:00N 58°12' W 134°24'3 1.1 140 / 61017.710.8 14.1
2019-Jul-14 22:00N 58°12' W 134°18'3 1.6 110 / 31017.2 5.4 15.0 15.0
2019-Jul-14 20:00N 58°12' W 134°24'22 3.7 130 / 51017.027.0 14.0
2019-Jul-14 14:00N 58°24' W 135°00'18 8.3 180 / 41016.5 5.4 13.8
2019-Jul-14 11:52N 58°11' W 135°23'616.9
2019-Jul-14 11:30N 58°14' W 135°34'917.7
2019-Jul-14 11:00N 58°19' W 135°48'816.8
2019-Jul-14 10:30N 58°20' W 136°04'1016.6
2019-Jul-14 09:55N 58°17' W 136°22'5313.5
2019-Jul-14 06:00N 58°30' W 138°00'6516.3 130 / 101016.027.0 15.0
2019-Jul-14 02:00N 59°12' W 139°36'3015.1 170 / 51015.810.8 14.4
2019-Jul-14 00:00N 59°42' W 139°42'62 8.8 240 / 61015.910.8 15.0
2019-Jul-13 17:00N 59°30' W 141°42'6421.3 120 / 111015.727.0 15.0
2019-Jul-13 14:00N 59°30' W 143°48'1818.3 170 / 71015.110.8 14.5
2019-Jul-13 13:00N 59°30' W 144°24'15514.1 120 / 91015.110.8 14.0
2019-Jul-13 02:00N 60°06' W 149°24'0 0.0 150 / 141014.9 5.4 16.0
2019-Jul-13 01:00N 60°06' W 149°24'0 0.0 180 / 111015.2 5.4 15.6
2019-Jul-12 14:00N 60°06' W 149°24'0 0.0 140 / 51015.2 5.4 14.013.1 9.0
2019-Jul-12 13:00N 60°06' W 149°24'   180 / 51015.6 5.4 14.1

Dump ship's entire track history